Time;durP1;ratioP1;P1;durP2;ratioP2;P2;SDS_P1;SDS_P2;PMS_P1;PMS_P2;Temp;Humidity;BMP_temperature;BMP_pressure;BME280_temperature;BME280_humidity;BME280_pressure;Samples;Min_cycle;Max_cycle;Signal;HPM_P1;HPM_P2
2021/11/11 00:02:22;;;;;;;39.25;23.25;;;;;;;6.93;61.94;100940.72;4963324;28;20092;-75
2021/11/11 00:04:49;;;;;;;45.53;25.30;;;;;;;6.93;62.08;100934.63;4961658;28;20088;-79
2021/11/11 00:07:17;;;;;;;46.20;23.38;;;;;;;6.93;62.09;100935.47;4961276;28;20054;-74
2021/11/11 00:09:44;;;;;;;45.60;23.00;;;;;;;6.93;62.10;100929.38;4963289;28;20066;-76
2021/11/11 00:12:11;;;;;;;38.00;23.35;;;;;;;6.91;62.10;100923.34;4962890;28;20050;-77
2021/11/11 00:14:38;;;;;;;37.08;24.15;;;;;;;6.89;62.10;100926.03;4962650;28;20051;-72
2021/11/11 00:17:05;;;;;;;45.72;25.55;;;;;;;6.89;61.86;100929.50;4962352;28;20066;-75
2021/11/11 00:19:32;;;;;;;41.65;22.77;;;;;;;6.88;62.09;100921.72;4967835;28;20058;-72
2021/11/11 00:21:59;;;;;;;37.92;24.20;;;;;;;6.87;62.12;100920.84;4963990;28;20554;-71
2021/11/11 00:24:27;;;;;;;40.13;22.95;;;;;;;6.87;62.09;100926.09;4965071;28;20839;-73
2021/11/11 00:26:54;;;;;;;41.35;23.83;;;;;;;6.85;61.95;100937.63;4964009;28;20054;-72
2021/11/11 00:29:22;;;;;;;46.85;25.50;;;;;;;6.83;62.19;100934.22;4961129;28;20053;-70
2021/11/11 00:31:50;;;;;;;37.58;23.35;;;;;;;6.82;62.11;100932.50;4960943;28;20081;-77
2021/11/11 00:34:19;;;;;;;41.22;23.17;;;;;;;6.82;62.17;100937.75;4964962;28;20099;-70
2021/11/11 00:36:46;;;;;;;39.67;22.90;;;;;;;6.77;62.20;100940.59;4979923;28;20042;-74
2021/11/11 00:39:13;;;;;;;48.75;26.25;;;;;;;6.76;62.19;100938.03;4982105;28;20076;-70
2021/11/11 00:41:42;;;;;;;46.38;24.27;;;;;;;6.73;62.30;100936.38;4985059;28;20057;-70
2021/11/11 00:44:09;;;;;;;46.55;25.10;;;;;;;6.73;62.20;100943.41;4981588;28;20600;-71
2021/11/11 00:46:36;;;;;;;37.15;23.52;;;;;;;6.70;62.38;100937.38;4982444;28;20073;-71
2021/11/11 00:49:06;;;;;;;49.35;26.77;;;;;;;6.69;62.15;100938.28;4981910;28;20047;-73
2021/11/11 00:51:34;;;;;;;48.25;25.42;;;;;;;6.67;62.18;100937.53;4982874;28;20622;-72
2021/11/11 00:54:01;;;;;;;40.80;23.80;;;;;;;6.65;62.26;100933.28;4981886;28;20062;-73
2021/11/11 00:56:28;;;;;;;43.42;23.58;;;;;;;6.64;62.25;100929.78;4981454;28;20129;-73
2021/11/11 00:58:57;;;;;;;40.53;25.33;;;;;;;6.62;62.42;100934.25;4982827;28;20537;-70
2021/11/11 01:01:28;;;;;;;54.40;25.58;;;;;;;6.61;62.27;100927.31;4985388;28;20068;-72
2021/11/11 01:03:55;;;;;;;38.83;23.90;;;;;;;6.59;62.33;100931.78;4982131;28;20664;-70
2021/11/11 01:06:22;;;;;;;42.88;25.27;;;;;;;6.56;62.27;100929.28;4981404;28;20050;-71
2021/11/11 01:08:49;;;;;;;40.28;24.60;;;;;;;6.54;62.34;100928.50;4982566;28;20039;-71
2021/11/11 01:11:16;;;;;;;41.30;25.65;;;;;;;6.52;62.30;100935.59;4983299;28;20625;-75
2021/11/11 01:13:43;;;;;;;42.25;24.85;;;;;;;6.48;62.22;100927.00;4986099;28;20050;-73
2021/11/11 01:16:11;;;;;;;44.55;24.67;;;;;;;6.49;62.53;100930.47;4983426;28;20042;-71
2021/11/11 01:18:38;;;;;;;46.55;27.20;;;;;;;6.49;62.16;100923.44;4982864;28;20046;-71
2021/11/11 01:21:07;;;;;;;53.33;29.13;;;;;;;6.46;62.61;100921.00;4982904;28;20054;-71
2021/11/11 01:23:34;;;;;;;63.42;32.97;;;;;;;6.43;62.56;100912.41;4982880;28;20160;-72
2021/11/11 01:26:02;;;;;;;68.97;33.60;;;;;;;6.43;62.56;100915.03;4982867;28;20046;-72
2021/11/11 01:28:29;;;;;;;50.05;29.50;;;;;;;6.43;62.61;100909.78;4983681;28;20062;-71
2021/11/11 01:30:56;;;;;;;45.20;27.40;;;;;;;6.42;62.61;100913.31;4981369;28;20054;-71
2021/11/11 01:33:25;;;;;;;47.22;26.30;;;;;;;6.41;62.54;100916.84;4984460;28;20565;-73
2021/11/11 01:35:51;;;;;;;41.50;25.65;;;;;;;6.40;62.44;100917.78;4983998;28;20141;-72
2021/11/11 01:38:19;;;;;;;53.33;25.85;;;;;;;6.37;62.77;100912.66;4981589;28;20150;-71
2021/11/11 01:40:46;;;;;;;46.58;25.15;;;;;;;6.35;62.78;100917.13;4983582;28;20139;-73
2021/11/11 01:43:13;;;;;;;40.70;25.45;;;;;;;6.34;62.61;100910.16;4987111;28;20058;-71
2021/11/11 01:45:42;;;;;;;44.95;27.10;;;;;;;6.34;62.84;100912.78;4987994;28;20136;-77
2021/11/11 01:48:11;;;;;;;39.25;23.73;;;;;;;6.33;62.84;100906.69;4987218;28;20054;-77
2021/11/11 01:50:41;;;;;;;36.63;22.45;;;;;;;6.35;62.61;100911.88;4987443;28;20043;-71
2021/11/11 01:53:10;;;;;;;37.90;22.45;;;;;;;6.31;62.76;100912.00;4985505;28;20450;-76
2021/11/11 01:55:37;;;;;;;40.65;25.42;;;;;;;6.28;62.81;100906.91;4985297;28;20096;-74
2021/11/11 01:58:04;;;;;;;45.13;25.02;;;;;;;6.28;62.88;100904.28;4985531;28;20058;-76
2021/11/11 02:00:35;;;;;;;48.40;27.88;;;;;;;6.27;63.00;100915.69;4983306;28;20057;-74
2021/11/11 02:03:04;;;;;;;46.03;26.20;;;;;;;6.26;62.98;100905.25;4985542;28;20059;-72
2021/11/11 02:05:33;;;;;;;46.35;26.90;;;;;;;6.21;62.87;100913.34;4986354;28;20053;-72
2021/11/11 02:08:02;;;;;;;47.30;29.80;;;;;;;6.20;63.00;100921.28;4986340;28;20058;-70
2021/11/11 02:10:30;;;;;;;40.90;27.05;;;;;;;6.18;62.89;100921.34;4985932;28;20046;-71
2021/11/11 02:12:58;;;;;;;46.05;26.77;;;;;;;6.14;62.97;100919.78;4985648;28;20116;-74
2021/11/11 02:15:25;;;;;;;47.88;28.30;;;;;;;6.13;62.92;100918.06;4985298;28;20115;-75
2021/11/11 02:17:52;;;;;;;48.25;29.23;;;;;;;6.09;62.92;100911.25;4985406;28;20059;-73
2021/11/11 02:20:23;;;;;;;49.03;26.15;;;;;;;6.11;63.06;100915.50;4986621;28;20455;-78
2021/11/11 02:22:50;;;;;;;48.20;26.05;;;;;;;6.10;62.96;100912.94;4986066;28;20054;-72
2021/11/11 02:25:21;;;;;;;47.08;25.38;;;;;;;6.10;63.04;100913.81;4985639;28;20125;-71
2021/11/11 02:27:51;;;;;;;50.17;27.27;;;;;;;6.09;63.10;100906.84;4985329;28;20051;-79
2021/11/11 02:30:21;;;;;;;42.80;28.50;;;;;;;6.08;63.02;100913.00;4985100;28;20668;-72
2021/11/11 02:32:48;;;;;;;39.75;25.05;;;;;;;6.08;62.95;100920.03;4987578;28;20653;-72
2021/11/11 02:35:17;;;;;;;43.45;26.48;;;;;;;6.06;63.06;100901.72;4991971;28;20058;-73
2021/11/11 02:37:46;;;;;;;46.50;27.40;;;;;;;6.07;62.97;100907.84;4990481;28;20064;-74
2021/11/11 02:40:16;;;;;;;42.17;27.63;;;;;;;6.05;63.07;100909.66;4992131;28;20061;-71
2021/11/11 02:42:45;;;;;;;44.90;27.02;;;;;;;6.07;62.93;100905.22;4987608;28;20093;-72
2021/11/11 02:45:15;;;;;;;49.85;27.52;;;;;;;6.07;63.09;100905.22;4988041;28;20599;-70
2021/11/11 02:47:44;;;;;;;51.50;28.25;;;;;;;6.06;62.92;100908.75;4985501;28;20054;-71
2021/11/11 02:50:12;;;;;;;45.47;25.17;;;;;;;6.06;62.97;100908.75;4985561;28;20058;-76
2021/11/11 02:52:39;;;;;;;40.97;24.10;;;;;;;6.05;62.99;100915.78;4987114;28;20414;-75
2021/11/11 02:55:09;;;;;;;44.10;26.90;;;;;;;6.05;63.01;100909.66;4985224;28;20055;-73
2021/11/11 02:57:38;;;;;;;39.47;24.17;;;;;;;6.03;63.03;100909.75;4984410;28;20043;-71
2021/11/11 03:00:11;;;;;;;41.22;23.05;;;;;;;6.01;63.03;100903.69;4982716;28;20054;-71
2021/11/11 03:02:40;;;;;;;43.22;23.48;;;;;;;6.01;63.01;100905.47;4984129;28;20043;-73
2021/11/11 03:05:10;;;;;;;40.83;25.13;;;;;;;6.00;62.98;100906.41;4984843;28;20047;-76
2021/11/11 03:07:37;;;;;;;47.72;26.67;;;;;;;5.96;63.01;100899.56;4985662;28;20077;-76
2021/11/11 03:10:06;;;;;;;42.13;24.70;;;;;;;5.94;63.13;100895.22;4984854;28;20505;-77
2021/11/11 03:12:34;;;;;;;41.17;23.90;;;;;;;5.94;62.98;100895.22;4987158;28;20046;-74
2021/11/11 03:15:01;;;;;;;35.60;23.70;;;;;;;5.93;62.95;100901.38;4988557;28;20384;-73
2021/11/11 03:17:29;;;;;;;47.13;26.20;;;;;;;5.90;63.08;100901.50;4983162;28;20099;-74
2021/11/11 03:19:56;;;;;;;39.38;24.08;;;;;;;5.88;63.03;100892.84;4982953;28;20051;-70
2021/11/11 03:22:23;;;;;;;45.25;25.92;;;;;;;5.88;62.98;100886.75;4983338;28;20054;-75
2021/11/11 03:24:51;;;;;;;40.22;25.65;;;;;;;5.87;63.15;100883.28;4983054;28;20054;-72
2021/11/11 03:27:19;;;;;;;39.05;24.35;;;;;;;5.87;63.05;100879.81;4985594;28;20386;-75
2021/11/11 03:29:49;;;;;;;37.70;22.27;;;;;;;5.87;63.09;100880.69;4983093;28;20046;-73
2021/11/11 03:32:17;;;;;;;37.50;21.25;;;;;;;5.85;62.94;100879.91;4983711;28;20042;-72
2021/11/11 03:34:44;;;;;;;37.55;24.10;;;;;;;5.84;63.02;100878.19;4984606;28;20051;-71
2021/11/11 03:37:12;;;;;;;37.28;22.80;;;;;;;5.85;62.98;100879.91;4974551;28;20062;-71
2021/11/11 03:39:39;;;;;;;38.08;21.77;;;;;;;5.86;62.97;100878.13;4963476;28;20055;-73
2021/11/11 03:42:08;;;;;;;35.67;19.85;;;;;;;5.84;63.07;100882.56;4964273;28;20412;-71
2021/11/11 03:44:35;;;;;;;41.17;22.35;;;;;;;5.83;63.09;100884.31;4969628;28;20059;-71
2021/11/11 03:47:04;;;;;;;44.53;21.73;;;;;;;5.83;63.09;100884.31;4964280;28;20046;-71
2021/11/11 03:49:33;;;;;;;37.85;22.38;;;;;;;5.82;63.09;100885.25;4965091;28;20172;-73
2021/11/11 03:52:00;;;;;;;38.05;19.92;;;;;;;5.82;63.10;100882.63;4963251;28;20070;-72
2021/11/11 03:54:27;;;;;;;37.50;21.40;;;;;;;5.81;62.98;100880.06;4964732;28;20046;-72
2021/11/11 03:56:56;;;;;;;40.17;20.83;;;;;;;5.79;63.02;100877.50;4964397;28;20062;-75
2021/11/11 03:59:27;;;;;;;31.60;18.83;;;;;;;5.77;63.13;100868.88;4962846;28;20054;-71
2021/11/11 04:01:55;;;;;;;33.30;18.17;;;;;;;5.75;63.15;100868.09;4962469;28;20051;-70
2021/11/11 04:04:23;;;;;;;34.35;20.05;;;;;;;5.73;63.09;100875.16;4963968;28;20059;-71
2021/11/11 04:06:50;;;;;;;34.17;20.40;;;;;;;5.70;63.17;100875.28;4964404;28;20058;-73
2021/11/11 04:09:18;;;;;;;34.67;22.80;;;;;;;5.68;62.95;100869.25;4963433;28;20047;-73
2021/11/11 04:11:45;;;;;;;40.72;21.27;;;;;;;5.64;62.94;100873.78;4964968;28;20143;-71
2021/11/11 04:14:12;;;;;;;45.83;21.63;;;;;;;5.60;63.13;100871.34;4964955;28;20057;-71
2021/11/11 04:16:39;;;;;;;31.98;19.30;;;;;;;5.55;62.94;100874.19;4966536;28;20474;-73
2021/11/11 04:19:06;;;;;;;32.97;20.75;;;;;;;5.54;62.92;100878.53;4964550;28;20158;-71
2021/11/11 04:21:34;;;;;;;39.38;19.65;;;;;;;5.48;63.14;100873.56;4964163;28;20057;-71
2021/11/11 04:24:01;;;;;;;34.75;19.70;;;;;;;5.46;62.71;100883.25;4964546;28;20431;-73
2021/11/11 04:26:31;;;;;;;31.67;18.90;;;;;;;5.38;62.95;100872.22;4971882;28;20049;-73
2021/11/11 04:29:01;;;;;;;41.33;22.90;;;;;;;5.34;63.01;100879.38;4975582;28;20058;-74
2021/11/11 04:31:33;;;;;;;38.65;20.48;;;;;;;5.34;63.01;100871.50;4976356;28;20039;-74
2021/11/11 04:34:04;;;;;;;39.17;19.92;;;;;;;5.34;63.05;100868.88;4974888;28;20047;-73
2021/11/11 04:36:55;;;;;;;41.80;20.35;;;;;;;5.34;63.11;100854.94;4975615;28;20039;-71
2021/11/11 04:39:51;;;;;;;37.67;19.77;;;;;;;5.37;63.19;100862.69;4978445;28;20059;-72
2021/11/11 04:42:32;;;;;;;42.10;20.85;;;;;;;5.39;62.99;100853.00;4972339;28;20064;-72
2021/11/11 04:45:25;;;;;;;41.50;20.33;;;;;;;5.38;63.13;100851.28;4968789;28;20043;-72
2021/11/11 04:48:06;;;;;;;41.08;20.58;;;;;;;5.40;63.11;100849.44;4967185;28;20507;-73
2021/11/11 05:01:40;;;;;;;38.05;18.98;;;;;;;5.38;63.34;100830.31;4929343;28;20757;-71
2021/11/11 05:04:07;;;;;;;44.70;22.85;;;;;;;5.37;63.43;100841.72;4925304;28;20357;-73
2021/11/11 05:06:33;;;;;;;37.35;22.45;;;;;;;5.37;63.51;100839.09;4929016;28;20040;-71
2021/11/11 05:09:00;;;;;;;38.78;21.13;;;;;;;5.37;63.48;100833.88;4929344;28;20052;-74
2021/11/11 05:11:29;;;;;;;35.08;19.60;;;;;;;5.39;63.43;100839.91;4926008;28;20116;-74
2021/11/11 05:13:57;;;;;;;36.70;18.38;;;;;;;5.39;63.49;100839.06;4923916;28;20055;-71
2021/11/11 05:16:24;;;;;;;37.70;18.40;;;;;;;5.38;63.53;100838.19;4925003;29;20458;-74
2021/11/11 05:18:51;;;;;;;32.05;18.88;;;;;;;5.39;63.45;100839.91;4926760;28;20051;-71
2021/11/11 05:21:18;;;;;;;33.08;20.40;;;;;;;5.38;63.51;100827.69;4930387;28;20089;-71
2021/11/11 05:23:45;;;;;;;31.90;18.73;;;;;;;5.37;63.46;100839.09;4926473;28;20051;-74
2021/11/11 05:26:12;;;;;;;37.70;22.58;;;;;;;5.33;63.47;100830.53;4924561;28;20133;-72
2021/11/11 05:28:40;;;;;;;35.30;19.33;;;;;;;5.34;63.52;100839.22;4925386;28;20121;-74
2021/11/11 05:31:07;;;;;;;45.30;19.83;;;;;;;5.33;63.58;100833.16;4963985;28;20047;-75
2021/11/11 05:33:34;;;;;;;40.30;23.05;;;;;;;5.33;63.61;100837.50;4965905;28;20050;-71
2021/11/11 05:36:02;;;;;;;32.35;20.23;;;;;;;5.33;63.57;100837.50;4966105;28;20057;-72
2021/11/11 05:38:29;;;;;;;43.75;23.98;;;;;;;5.32;63.62;100839.28;4965917;28;20061;-72
2021/11/11 05:40:56;;;;;;;44.78;25.80;;;;;;;5.32;63.51;100833.22;4964576;28;20059;-72
2021/11/11 05:43:23;;;;;;;53.08;31.35;;;;;;;5.32;63.56;100831.44;4965511;28;20510;-75
2021/11/11 05:45:51;;;;;;;60.70;34.03;;;;;;;5.33;63.76;100829.66;4967314;28;20051;-74
2021/11/11 05:48:19;;;;;;;57.42;33.10;;;;;;;5.33;63.58;100830.53;4964715;28;20070;-75
2021/11/11 05:50:46;;;;;;;51.63;29.70;;;;;;;5.33;63.70;100827.03;4969182;28;20309;-76
2021/11/11 05:53:13;;;;;;;57.22;27.25;;;;;;;5.35;63.63;100820.00;5017273;28;20051;-75
2021/11/11 05:55:40;;;;;;;54.47;29.35;;;;;;;5.30;63.69;100822.78;4967208;28;20058;-72
2021/11/11 05:58:07;;;;;;;46.55;24.45;;;;;;;5.34;63.64;100831.38;4967906;28;20523;-77
2021/11/11 06:00:34;;;;;;;52.55;24.50;;;;;;;5.33;63.77;100832.28;4968162;28;20042;-76
2021/11/11 06:03:04;;;;;;;45.15;24.65;;;;;;;5.36;63.71;100842.63;4967653;28;20059;-73
2021/11/11 06:05:32;;;;;;;47.95;25.50;;;;;;;5.37;63.79;100833.88;4969576;28;20047;-75
2021/11/11 06:07:59;;;;;;;43.85;23.77;;;;;;;5.38;63.65;100830.31;4968908;28;20155;-77
2021/11/11 06:10:26;;;;;;;43.78;22.10;;;;;;;5.41;63.77;100837.22;4972508;28;20240;-74
2021/11/11 06:12:53;;;;;;;44.00;22.95;;;;;;;5.43;63.52;100838.00;4971467;28;20055;-72
2021/11/11 06:15:20;;;;;;;42.92;21.08;;;;;;;5.47;63.55;100832.53;4969495;28;20124;-71
2021/11/11 06:17:52;;;;;;;38.72;21.27;;;;;;;5.49;63.57;100838.59;4969804;28;20050;-72
2021/11/11 06:20:27;;;;;;;38.03;20.75;;;;;;;5.55;63.53;100835.72;4966258;28;20053;-73
2021/11/11 06:22:54;;;;;;;42.92;22.55;;;;;;;5.60;63.35;100842.53;4967206;28;20387;-78
2021/11/11 06:25:21;;;;;;;38.20;22.63;;;;;;;5.61;63.55;100842.47;4975628;28;20043;-77
2021/11/11 06:27:48;;;;;;;39.15;20.67;;;;;;;5.64;63.53;100842.34;4975360;28;20588;-75
2021/11/11 06:30:15;;;;;;;35.85;21.65;;;;;;;5.67;63.48;100841.34;4976193;28;20050;-79
2021/11/11 06:32:43;;;;;;;39.03;22.45;;;;;;;5.74;63.49;100840.16;4978147;28;20043;-79
2021/11/11 06:35:10;;;;;;;31.85;21.00;;;;;;;5.77;63.42;100852.31;4981459;28;20527;-79
2021/11/11 06:37:40;;;;;;;40.50;25.02;;;;;;;5.79;63.52;100846.06;4972688;28;20054;-77
2021/11/11 06:40:08;;;;;;;35.75;22.45;;;;;;;5.81;63.38;100854.72;4973996;28;20046;-79
2021/11/11 06:42:35;;;;;;;37.53;21.45;;;;;;;5.85;63.43;100848.44;4978171;28;20054;-76
2021/11/11 06:45:03;;;;;;;45.00;27.58;;;;;;;5.87;63.32;100848.34;4979925;28;20133;-77
2021/11/11 06:47:30;;;;;;;43.80;25.27;;;;;;;5.91;63.36;100847.31;4978722;28;20042;-78
2021/11/11 06:49:57;;;;;;;38.28;23.27;;;;;;;5.96;63.29;100847.13;4980172;28;20054;-74
2021/11/11 06:52:24;;;;;;;36.13;21.08;;;;;;;6.03;63.20;100853.81;4974505;28;20126;-73
2021/11/11 06:54:53;;;;;;;38.70;23.58;;;;;;;6.09;63.18;100859.66;4978425;28;20047;-72
2021/11/11 06:57:20;;;;;;;34.72;22.35;;;;;;;6.16;63.15;100859.34;4975347;28;20042;-74
2021/11/11 06:59:47;;;;;;;44.53;24.10;;;;;;;6.23;63.02;100861.66;4976963;28;20050;-77
2021/11/11 07:02:16;;;;;;;40.17;23.45;;;;;;;6.30;62.94;100864.84;4980993;28;20683;-72
2021/11/11 07:04:43;;;;;;;47.50;25.02;;;;;;;6.36;62.90;100861.13;4973831;28;20514;-78
2021/11/11 07:07:10;;;;;;;35.97;22.40;;;;;;;6.43;62.89;100873.03;4976077;28;20058;-76
2021/11/11 07:09:37;;;;;;;41.03;24.77;;;;;;;6.48;62.79;100868.41;4973593;28;20084;-73
2021/11/11 07:12:06;;;;;;;41.47;24.67;;;;;;;6.54;62.86;100876.00;4976363;28;20050;-72
2021/11/11 07:14:33;;;;;;;47.40;26.42;;;;;;;6.60;62.75;100864.38;4978998;28;20053;-73
2021/11/11 07:17:00;;;;;;;49.35;26.55;;;;;;;6.67;62.69;100871.06;5043455;28;20716;-73
2021/11/11 07:19:27;;;;;;;43.17;24.90;;;;;;;6.76;62.57;100857.50;4976094;28;20521;-75
2021/11/11 07:21:54;;;;;;;46.25;26.17;;;;;;;6.82;62.59;100858.97;4978874;28;20043;-74
2021/11/11 07:24:22;;;;;;;40.85;23.60;;;;;;;6.90;62.62;100851.59;4976908;28;20050;-77
2021/11/11 07:26:50;;;;;;;36.92;22.50;;;;;;;6.99;62.41;100861.66;4979551;28;20062;-75
2021/11/11 07:29:18;;;;;;;42.15;25.83;;;;;;;7.04;62.38;100848.28;4978913;28;20060;-76
2021/11/11 07:31:51;;;;;;;43.13;25.65;;;;;;;7.15;62.11;100850.41;4970685;28;20050;-72
2021/11/11 07:34:18;;;;;;;39.42;23.83;;;;;;;7.25;62.15;100841.16;4976244;28;20038;-76
2021/11/11 07:36:45;;;;;;;42.17;26.13;;;;;;;7.31;61.89;100837.38;4979523;28;20085;-75
2021/11/11 07:39:15;;;;;;;44.75;26.75;;;;;;;7.43;61.88;100837.59;4978415;28;20056;-73
2021/11/11 07:41:43;;;;;;;43.22;25.35;;;;;;;7.53;61.78;100842.41;4982247;28;20602;-72
2021/11/11 07:44:11;;;;;;;40.17;23.88;;;;;;;7.59;61.57;100840.31;4985540;28;20050;-76
2021/11/11 07:46:45;;;;;;;36.95;22.88;;;;;;;7.66;61.68;100835.59;4986886;28;20739;-72
2021/11/11 07:49:12;;;;;;;40.72;24.70;;;;;;;7.73;61.45;100839.63;4990448;28;20130;-73
2021/11/11 07:51:39;;;;;;;38.03;22.85;;;;;;;7.82;61.40;100840.94;4988995;28;20082;-75
2021/11/11 07:54:06;;;;;;;37.08;23.55;;;;;;;7.91;61.34;100831.72;4992262;28;20382;-77
2021/11/11 07:56:35;;;;;;;32.25;21.60;;;;;;;8.02;61.24;100837.25;4990542;28;20593;-76
2021/11/11 07:59:07;;;;;;;39.78;23.27;;;;;;;8.11;61.03;100836.78;4991056;28;20046;-73
2021/11/11 08:01:34;;;;;;;38.08;23.15;;;;;;;8.21;60.82;100827.47;4982835;28;20111;-76
2021/11/11 08:04:03;;;;;;;34.42;22.58;;;;;;;8.28;60.75;100812.16;4977724;28;20051;-74
2021/11/11 08:06:30;;;;;;;37.75;23.27;;;;;;;8.44;60.56;100822.75;4980712;28;20480;-75
2021/11/11 08:08:57;;;;;;;41.40;24.83;;;;;;;8.53;60.36;100824.88;4975188;28;20685;-74
2021/11/11 08:11:24;;;;;;;37.30;21.45;;;;;;;8.65;60.08;100819.91;4987187;28;20076;-77
2021/11/11 08:13:51;;;;;;;32.30;22.20;;;;;;;8.74;60.17;100819.38;4974197;28;20053;-73
2021/11/11 08:16:18;;;;;;;37.45;24.05;;;;;;;8.84;59.74;100814.44;4993359;28;20286;-72
2021/11/11 08:18:46;;;;;;;35.15;22.50;;;;;;;8.95;59.69;100820.81;4988365;28;20046;-75
2021/11/11 08:21:14;;;;;;;38.72;24.45;;;;;;;9.07;59.57;100821.03;4998398;28;20118;-73
2021/11/11 08:23:42;;;;;;;34.88;22.83;;;;;;;9.16;59.43;100815.25;4997992;28;20628;-73
2021/11/11 08:26:09;;;;;;;39.10;24.40;;;;;;;9.28;59.17;100811.91;4994710;28;20577;-76
2021/11/11 08:28:36;;;;;;;37.88;25.13;;;;;;;9.39;59.10;100803.38;4998499;28;20082;-75
2021/11/11 08:31:05;;;;;;;35.97;23.90;;;;;;;9.52;58.88;100806.13;4995560;28;20443;-80
2021/11/11 08:33:32;;;;;;;37.55;23.20;;;;;;;9.67;58.47;100810.50;5058768;28;20050;-75
2021/11/11 08:35:59;;;;;;;33.25;22.00;;;;;;;9.79;58.43;100810.69;4992749;28;20179;-74
2021/11/11 08:38:29;;;;;;;36.00;21.85;;;;;;;9.91;58.12;100808.16;5055558;28;20418;-74
2021/11/11 08:40:58;;;;;;;33.78;22.25;;;;;;;10.03;57.92;100806.56;4988562;28;20104;-75
2021/11/11 08:43:25;;;;;;;38.50;23.33;;;;;;;10.15;57.77;100807.59;4989615;28;20046;-76
2021/11/11 08:45:53;;;;;;;36.17;21.00;;;;;;;10.30;57.45;100801.38;4982724;28;20123;-70
2021/11/11 08:48:21;;;;;;;35.30;22.95;;;;;;;10.46;57.15;100801.28;4982463;28;20069;-72
2021/11/11 08:50:48;;;;;;;32.65;20.73;;;;;;;10.62;56.87;100800.31;4975760;28;20055;-76
2021/11/11 08:53:17;;;;;;;39.17;23.23;;;;;;;10.72;56.90;100793.50;4972261;28;20042;-76
2021/11/11 08:55:51;;;;;;;34.70;22.48;;;;;;;10.94;56.51;100797.38;4972285;28;20640;-80
2021/11/11 08:58:41;;;;;;;34.05;22.60;;;;;;;11.16;56.28;100796.81;4974195;28;20046;-72
2021/11/11 09:01:09;;;;;;;41.90;24.08;;;;;;;11.41;55.80;100793.38;4983447;28;20051;-75
2021/11/11 09:03:40;;;;;;;40.00;24.65;;;;;;;11.61;55.48;100798.19;4969432;28;20074;-74
2021/11/11 09:06:15;;;;;;;32.47;21.00;;;;;;;11.87;55.32;100800.81;5005914;28;20065;-80
2021/11/11 09:08:53;;;;;;;28.42;20.60;;;;;;;12.03;55.10;100793.53;4953738;28;20061;-75
2021/11/11 09:11:22;;;;;;;32.60;20.90;;;;;;;12.14;54.68;100800.72;4969601;28;20047;-80
2021/11/11 09:13:50;;;;;;;30.65;22.38;;;;;;;12.37;54.25;100795.59;4968434;28;20108;-84
2021/11/11 09:16:17;;;;;;;32.45;20.30;;;;;;;12.55;53.86;100791.63;4972219;28;20053;-79
2021/11/11 09:18:44;;;;;;;31.92;22.00;;;;;;;12.69;53.61;100795.09;4973158;28;20055;-74
2021/11/11 09:21:16;;;;;;;33.67;21.75;;;;;;;12.67;53.38;100797.84;4974038;28;20047;-75
2021/11/11 09:24:02;;;;;;;31.70;21.52;;;;;;;12.76;53.31;100796.31;4973324;28;20052;-78
2021/11/11 09:27:07;;;;;;;29.38;20.15;;;;;;;12.98;52.68;100801.75;5035384;28;20069;-74
2021/11/11 09:29:35;;;;;;;37.33;23.58;;;;;;;13.19;52.32;100793.16;4974106;28;20211;-74
2021/11/11 09:32:11;;;;;;;36.85;22.27;;;;;;;13.23;51.86;100783.16;4977234;28;20130;-75
2021/11/11 09:34:39;;;;;;;32.25;22.70;;;;;;;13.23;51.91;100772.56;4980634;28;20070;-83
2021/11/11 09:37:06;;;;;;;36.72;24.67;;;;;;;13.36;51.66;100778.63;4973308;28;20650;-81
2021/11/11 09:39:33;;;;;;;34.50;22.35;;;;;;;13.45;51.22;100790.38;4979625;28;20050;-80
2021/11/11 09:42:03;;;;;;;33.95;22.60;;;;;;;13.50;51.12;100783.75;4948175;28;20041;-80
2021/11/11 09:44:30;;;;;;;34.05;21.20;;;;;;;13.51;51.15;100780.13;4979759;28;20047;-74
2021/11/11 09:47:01;;;;;;;33.30;23.05;;;;;;;13.52;51.16;100791.59;4970440;28;20057;-81
2021/11/11 09:49:28;;;;;;;30.95;20.88;;;;;;;13.48;51.20;100784.84;4975212;28;20046;-77
2021/11/11 09:52:01;;;;;;;32.83;23.38;;;;;;;13.48;51.09;100788.31;4974643;28;20431;-79
2021/11/11 09:59:59;;;;;;;36.22;22.95;;;;;;;13.68;50.71;100772.69;4976046;28;20054;-78
2021/11/11 10:02:26;;;;;;;37.60;23.95;;;;;;;13.77;50.50;100767.53;4980990;28;20054;-80
2021/11/11 10:04:54;;;;;;;30.88;22.55;;;;;;;13.95;50.06;100764.38;4977026;28;20047;-74
2021/11/11 10:07:21;;;;;;;33.75;24.23;;;;;;;14.06;49.81;100763.53;4972771;28;20047;-76
2021/11/11 10:09:48;;;;;;;37.03;23.77;;;;;;;14.13;49.80;100762.06;4977003;28;20137;-77
2021/11/11 10:12:21;;;;;;;38.40;24.17;;;;;;;14.16;49.80;100759.19;4975354;28;20173;-76
2021/11/11 10:14:49;;;;;;;48.55;31.08;;;;;;;14.22;49.57;100761.34;5042039;28;20055;-78
2021/11/11 10:17:19;;;;;;;53.38;35.67;;;;;;;14.30;49.26;100769.56;4974915;28;20054;-83
2021/11/11 10:19:49;;;;;;;45.47;29.05;;;;;;;14.37;49.26;100763.75;4976650;28;20047;-77
2021/11/11 10:22:24;;;;;;;42.60;27.65;;;;;;;14.42;49.17;100761.56;4979063;28;20052;-78
2021/11/11 10:24:55;;;;;;;42.10;26.35;;;;;;;14.43;48.98;100763.25;4971792;28;20050;-74
2021/11/11 10:27:32;;;;;;;38.08;25.48;;;;;;;14.42;49.22;100762.44;4973971;28;20047;-77
2021/11/11 10:30:04;;;;;;;38.40;24.70;;;;;;;14.43;49.15;100761.44;4968865;28;20078;-80
2021/11/11 10:32:34;;;;;;;33.55;24.42;;;;;;;14.37;49.13;100761.94;4985480;28;20143;-79
2021/11/11 10:35:07;;;;;;;37.63;23.73;;;;;;;14.31;49.09;100757.97;4989393;28;20089;-74
2021/11/11 10:37:37;;;;;;;38.97;25.52;;;;;;;14.21;49.20;100761.50;5036044;28;20043;-84
2021/11/11 10:40:11;;;;;;;38.17;24.83;;;;;;;14.21;49.08;100754.34;4966579;28;20104;-78
2021/11/11 10:42:43;;;;;;;42.03;24.88;;;;;;;14.15;48.99;100761.00;4968064;28;20126;-81
2021/11/11 10:45:13;;;;;;;34.53;22.98;;;;;;;14.09;49.25;100753.50;4980336;28;20053;-82
2021/11/11 10:47:44;;;;;;;33.65;23.50;;;;;;;14.21;49.18;100753.53;4980963;28;20276;-81
2021/11/11 10:50:16;;;;;;;34.85;24.98;;;;;;;14.25;49.02;100763.75;4986479;28;20409;-77
2021/11/11 10:52:46;;;;;;;31.13;22.27;;;;;;;14.05;48.80;100761.84;4997919;28;20080;-74
2021/11/11 10:55:22;;;;;;;31.30;21.45;;;;;;;13.93;48.77;100761.84;4989440;28;20051;-79
2021/11/11 10:58:10;;;;;;;31.75;22.55;;;;;;;13.79;48.62;100754.09;4988468;28;20050;-77
2021/11/11 11:00:41;;;;;;;30.10;20.65;;;;;;;13.77;48.61;100758.69;5052777;28;20053;-78
2021/11/11 11:03:11;;;;;;;31.15;21.95;;;;;;;13.77;48.60;100753.38;4987202;28;20139;-83
2021/11/11 11:05:47;;;;;;;34.08;23.25;;;;;;;13.76;48.39;100749.06;4989613;28;20066;-78
2021/11/11 11:08:15;;;;;;;;;;;;;;;14.15;48.26;100741.53;4987356;28;20057;-82
2021/11/11 11:10:45;;;;;;;31.65;21.20;;;;;;;13.94;48.45;100739.63;4984987;28;19922;-78
2021/11/11 11:13:19;;;;;;;35.20;22.90;;;;;;;13.82;48.44;100732.63;4975878;28;20130;-76
2021/11/11 11:15:53;;;;;;;32.53;23.08;;;;;;;13.83;48.64;100734.34;5048919;28;20050;-79
2021/11/11 11:18:26;;;;;;;33.58;21.77;;;;;;;13.99;48.65;100727.78;4964481;28;20058;-81
2021/11/11 11:20:58;;;;;;;32.20;21.17;;;;;;;14.06;48.51;100740.50;4963196;28;20063;-81
2021/11/11 11:23:35;;;;;;;34.58;22.38;;;;;;;14.06;48.58;100729.00;4966409;28;20050;-81
2021/11/11 11:26:27;;;;;;;31.67;22.83;;;;;;;14.09;48.72;100734.91;4967922;28;20129;-78
2021/11/11 11:29:17;;;;;;;29.73;23.00;;;;;;;14.00;48.03;100730.34;5011781;28;20713;-80
2021/11/11 11:31:48;;;;;;;32.80;21.67;;;;;;;13.77;48.01;100727.69;5016083;28;20433;-77
2021/11/11 11:34:21;;;;;;;31.75;23.33;;;;;;;13.66;47.92;100732.97;5017081;28;20045;-79
2021/11/11 11:36:51;;;;;;;29.70;18.58;;;;;;;13.62;48.28;100726.22;5017654;28;20089;-77
2021/11/11 11:39:30;;;;;;;32.88;23.27;;;;;;;13.56;47.86;100726.72;5019866;28;20124;-77
2021/11/11 11:42:02;;;;;;;31.55;23.70;;;;;;;13.46;47.90;100718.59;5012787;28;20117;-82